sensor_id;sensor_type;location;lat;lon;timestamp;temperature;humidity
6375;DHT22;35400;45.472;-122.822;2022-12-29T00:01:58;8.40;99.90
6375;DHT22;35400;45.472;-122.822;2022-12-29T00:04:25;8.40;99.90
6375;DHT22;35400;45.472;-122.822;2022-12-29T00:06:52;8.40;99.90
6375;DHT22;35400;45.472;-122.822;2022-12-29T00:09:20;8.30;99.90
6375;DHT22;35400;45.472;-122.822;2022-12-29T00:11:47;8.30;99.90
6375;DHT22;35400;45.472;-122.822;2022-12-29T00:14:16;8.30;99.90
6375;DHT22;35400;45.472;-122.822;2022-12-29T00:17:01;8.20;99.90
6375;DHT22;35400;45.472;-122.822;2022-12-29T00:19:28;8.10;99.90
6375;DHT22;35400;45.472;-122.822;2022-12-29T00:22:14;8.10;99.90
6375;DHT22;35400;45.472;-122.822;2022-12-29T00:25:00;8.00;99.90
6375;DHT22;35400;45.472;-122.822;2022-12-29T00:27:46;8.00;99.90
6375;DHT22;35400;45.472;-122.822;2022-12-29T00:30:31;7.90;99.90
6375;DHT22;35400;45.472;-122.822;2022-12-29T00:33:19;7.80;99.90
6375;DHT22;35400;45.472;-122.822;2022-12-29T00:36:08;7.80;99.90
6375;DHT22;35400;45.472;-122.822;2022-12-29T00:38:41;7.70;99.90
6375;DHT22;35400;45.472;-122.822;2022-12-29T00:41:27;7.70;99.90
6375;DHT22;35400;45.472;-122.822;2022-12-29T00:44:13;7.70;99.90
6375;DHT22;35400;45.472;-122.822;2022-12-29T00:46:42;7.60;99.90
6375;DHT22;35400;45.472;-122.822;2022-12-29T00:49:09;7.60;99.90
6375;DHT22;35400;45.472;-122.822;2022-12-29T00:51:56;7.60;99.90
6375;DHT22;35400;45.472;-122.822;2022-12-29T00:54:23;7.60;99.90
6375;DHT22;35400;45.472;-122.822;2022-12-29T00:56:51;7.60;99.90
6375;DHT22;35400;45.472;-122.822;2022-12-29T00:59:19;7.60;99.90
6375;DHT22;35400;45.472;-122.822;2022-12-29T01:01:47;7.50;99.90
6375;DHT22;35400;45.472;-122.822;2022-12-29T01:04:14;7.50;99.90
6375;DHT22;35400;45.472;-122.822;2022-12-29T01:06:41;7.50;99.90
6375;DHT22;35400;45.472;-122.822;2022-12-29T01:09:08;7.50;99.90
6375;DHT22;35400;45.472;-122.822;2022-12-29T01:11:54;7.50;99.90
6375;DHT22;35400;45.472;-122.822;2022-12-29T01:14:21;7.40;99.90
6375;DHT22;35400;45.472;-122.822;2022-12-29T01:16:48;7.40;99.90
6375;DHT22;35400;45.472;-122.822;2022-12-29T01:19:16;7.40;99.90
6375;DHT22;35400;45.472;-122.822;2022-12-29T01:21:43;7.40;99.90
6375;DHT22;35400;45.472;-122.822;2022-12-29T01:24:10;7.40;99.90
6375;DHT22;35400;45.472;-122.822;2022-12-29T01:26:36;7.40;99.90
6375;DHT22;35400;45.472;-122.822;2022-12-29T01:29:03;7.40;99.90
6375;DHT22;35400;45.472;-122.822;2022-12-29T01:31:29;7.40;99.90
6375;DHT22;35400;45.472;-122.822;2022-12-29T01:33:56;7.30;99.90
6375;DHT22;35400;45.472;-122.822;2022-12-29T01:36:24;7.30;99.90
6375;DHT22;35400;45.472;-122.822;2022-12-29T01:38:51;7.30;99.90
6375;DHT22;35400;45.472;-122.822;2022-12-29T01:41:20;7.30;99.90
6375;DHT22;35400;45.472;-122.822;2022-12-29T01:43:54;7.30;99.90
6375;DHT22;35400;45.472;-122.822;2022-12-29T01:49:17;7.30;99.90
6375;DHT22;35400;45.472;-122.822;2022-12-29T01:51:52;7.30;99.90
6375;DHT22;35400;45.472;-122.822;2022-12-29T01:54:35;7.30;99.90
6375;DHT22;35400;45.472;-122.822;2022-12-29T01:57:07;7.30;99.90
6375;DHT22;35400;45.472;-122.822;2022-12-29T01:59:39;7.30;99.90
6375;DHT22;35400;45.472;-122.822;2022-12-29T02:02:11;7.30;99.90
6375;DHT22;35400;45.472;-122.822;2022-12-29T02:04:41;7.30;99.90
6375;DHT22;35400;45.472;-122.822;2022-12-29T02:07:22;7.30;99.90
6375;DHT22;35400;45.472;-122.822;2022-12-29T02:09:53;7.30;99.90
6375;DHT22;35400;45.472;-122.822;2022-12-29T02:12:22;7.40;99.90
6375;DHT22;35400;45.472;-122.822;2022-12-29T02:14:53;7.40;99.90
6375;DHT22;35400;45.472;-122.822;2022-12-29T02:31:46;7.50;99.90
6375;DHT22;35400;45.472;-122.822;2022-12-29T02:39:42;7.50;99.90
6375;DHT22;35400;45.472;-122.822;2022-12-29T02:45:05;7.50;99.90
6375;DHT22;35400;45.472;-122.822;2022-12-29T02:47:40;7.50;99.90
6375;DHT22;35400;45.472;-122.822;2022-12-29T02:53:07;7.50;99.90
6375;DHT22;35400;45.472;-122.822;2022-12-29T02:55:35;7.50;99.90
6375;DHT22;35400;45.472;-122.822;2022-12-29T03:00:47;7.50;99.90
6375;DHT22;35400;45.472;-122.822;2022-12-29T03:09:32;7.50;99.90
6375;DHT22;35400;45.472;-122.822;2022-12-29T03:12:25;7.50;99.90
6375;DHT22;35400;45.472;-122.822;2022-12-29T03:15:23;7.50;99.90
6375;DHT22;35400;45.472;-122.822;2022-12-29T03:18:19;7.50;99.90
6375;DHT22;35400;45.472;-122.822;2022-12-29T03:20:56;7.50;99.90
6375;DHT22;35400;45.472;-122.822;2022-12-29T03:23:25;7.50;99.90
6375;DHT22;35400;45.472;-122.822;2022-12-29T03:25:57;7.50;99.90
6375;DHT22;35400;45.472;-122.822;2022-12-29T03:28:51;7.50;99.90
6375;DHT22;35400;45.472;-122.822;2022-12-29T03:31:24;7.50;99.90
6375;DHT22;35400;45.472;-122.822;2022-12-29T03:33:53;7.50;99.90
6375;DHT22;35400;45.472;-122.822;2022-12-29T03:36:33;7.50;99.90
6375;DHT22;35400;45.472;-122.822;2022-12-29T03:39:09;7.50;99.90
6375;DHT22;35400;45.472;-122.822;2022-12-29T03:41:40;7.50;99.90
6375;DHT22;35400;45.472;-122.822;2022-12-29T03:44:10;7.50;99.90
6375;DHT22;35400;45.472;-122.822;2022-12-29T03:46:37;7.50;99.90
6375;DHT22;35400;45.472;-122.822;2022-12-29T03:49:04;7.40;99.90
6375;DHT22;35400;45.472;-122.822;2022-12-29T03:51:31;7.40;99.90
6375;DHT22;35400;45.472;-122.822;2022-12-29T03:53:58;7.40;99.90
6375;DHT22;35400;45.472;-122.822;2022-12-29T03:56:25;7.40;99.90
6375;DHT22;35400;45.472;-122.822;2022-12-29T03:58:52;7.40;99.90
6375;DHT22;35400;45.472;-122.822;2022-12-29T04:01:27;7.30;99.90
6375;DHT22;35400;45.472;-122.822;2022-12-29T04:03:54;7.30;99.90
6375;DHT22;35400;45.472;-122.822;2022-12-29T04:06:21;7.30;99.90
6375;DHT22;35400;45.472;-122.822;2022-12-29T04:08:57;7.30;99.90
6375;DHT22;35400;45.472;-122.822;2022-12-29T04:11:24;7.30;99.90
6375;DHT22;35400;45.472;-122.822;2022-12-29T04:13:51;7.30;99.90
6375;DHT22;35400;45.472;-122.822;2022-12-29T04:16:23;7.30;99.90
6375;DHT22;35400;45.472;-122.822;2022-12-29T04:18:50;7.30;99.90
6375;DHT22;35400;45.472;-122.822;2022-12-29T04:21:17;7.30;99.90
6375;DHT22;35400;45.472;-122.822;2022-12-29T04:23:44;7.30;99.90
6375;DHT22;35400;45.472;-122.822;2022-12-29T04:26:12;7.30;99.90
6375;DHT22;35400;45.472;-122.822;2022-12-29T04:29:08;7.30;99.90
6375;DHT22;35400;45.472;-122.822;2022-12-29T04:31:54;7.30;99.90
6375;DHT22;35400;45.472;-122.822;2022-12-29T04:34:21;7.20;99.90
6375;DHT22;35400;45.472;-122.822;2022-12-29T04:36:48;7.20;99.90
6375;DHT22;35400;45.472;-122.822;2022-12-29T04:39:15;7.20;99.90
6375;DHT22;35400;45.472;-122.822;2022-12-29T04:41:42;7.20;99.90
6375;DHT22;35400;45.472;-122.822;2022-12-29T04:44:16;7.20;99.90
6375;DHT22;35400;45.472;-122.822;2022-12-29T04:47:21;7.20;99.90
6375;DHT22;35400;45.472;-122.822;2022-12-29T04:49:59;7.20;99.90
6375;DHT22;35400;45.472;-122.822;2022-12-29T04:52:38;7.20;99.90
6375;DHT22;35400;45.472;-122.822;2022-12-29T04:55:05;7.10;99.90
6375;DHT22;35400;45.472;-122.822;2022-12-29T04:57:32;7.10;99.90
6375;DHT22;35400;45.472;-122.822;2022-12-29T04:59:59;7.10;99.90
6375;DHT22;35400;45.472;-122.822;2022-12-29T05:02:26;7.10;99.90
6375;DHT22;35400;45.472;-122.822;2022-12-29T05:04:55;7.00;99.90
6375;DHT22;35400;45.472;-122.822;2022-12-29T05:07:22;7.00;99.90
6375;DHT22;35400;45.472;-122.822;2022-12-29T05:09:49;7.00;99.90
6375;DHT22;35400;45.472;-122.822;2022-12-29T05:12:15;7.00;99.90
6375;DHT22;35400;45.472;-122.822;2022-12-29T05:15:01;7.00;99.90
6375;DHT22;35400;45.472;-122.822;2022-12-29T05:17:29;7.00;99.90
6375;DHT22;35400;45.472;-122.822;2022-12-29T05:19:55;7.00;99.90
6375;DHT22;35400;45.472;-122.822;2022-12-29T05:22:22;7.00;99.90
6375;DHT22;35400;45.472;-122.822;2022-12-29T05:24:49;7.00;99.90
6375;DHT22;35400;45.472;-122.822;2022-12-29T05:27:16;7.00;99.90
6375;DHT22;35400;45.472;-122.822;2022-12-29T05:29:48;7.00;99.90
6375;DHT22;35400;45.472;-122.822;2022-12-29T05:32:14;7.00;99.90
6375;DHT22;35400;45.472;-122.822;2022-12-29T05:34:42;7.00;99.90
6375;DHT22;35400;45.472;-122.822;2022-12-29T05:37:08;7.00;99.90
6375;DHT22;35400;45.472;-122.822;2022-12-29T05:39:35;7.00;99.90
6375;DHT22;35400;45.472;-122.822;2022-12-29T05:42:04;7.00;99.90
6375;DHT22;35400;45.472;-122.822;2022-12-29T05:44:49;6.90;99.90
6375;DHT22;35400;45.472;-122.822;2022-12-29T05:47:45;6.90;99.90
6375;DHT22;35400;45.472;-122.822;2022-12-29T05:50:31;6.90;99.90
6375;DHT22;35400;45.472;-122.822;2022-12-29T05:53:21;6.90;99.90
6375;DHT22;35400;45.472;-122.822;2022-12-29T05:55:47;6.80;99.90
6375;DHT22;35400;45.472;-122.822;2022-12-29T05:58:14;6.80;99.90
6375;DHT22;35400;45.472;-122.822;2022-12-29T06:00:42;6.80;99.90
6375;DHT22;35400;45.472;-122.822;2022-12-29T06:03:09;6.70;99.90
6375;DHT22;35400;45.472;-122.822;2022-12-29T06:05:36;6.60;99.90
6375;DHT22;35400;45.472;-122.822;2022-12-29T06:08:03;6.60;99.90
6375;DHT22;35400;45.472;-122.822;2022-12-29T06:10:29;6.60;99.90
6375;DHT22;35400;45.472;-122.822;2022-12-29T06:13:05;6.60;99.90
6375;DHT22;35400;45.472;-122.822;2022-12-29T06:15:34;6.50;99.90
6375;DHT22;35400;45.472;-122.822;2022-12-29T06:18:02;6.50;99.90
6375;DHT22;35400;45.472;-122.822;2022-12-29T06:20:29;6.40;99.90
6375;DHT22;35400;45.472;-122.822;2022-12-29T06:22:55;6.40;99.90
6375;DHT22;35400;45.472;-122.822;2022-12-29T06:25:23;6.40;99.90
6375;DHT22;35400;45.472;-122.822;2022-12-29T06:27:49;6.40;99.90
6375;DHT22;35400;45.472;-122.822;2022-12-29T06:30:16;6.30;99.90
6375;DHT22;35400;45.472;-122.822;2022-12-29T06:32:43;6.30;99.90
6375;DHT22;35400;45.472;-122.822;2022-12-29T06:35:11;6.30;99.90
6375;DHT22;35400;45.472;-122.822;2022-12-29T06:37:45;6.30;99.90
6375;DHT22;35400;45.472;-122.822;2022-12-29T06:40:12;6.20;99.90
6375;DHT22;35400;45.472;-122.822;2022-12-29T06:43:09;6.20;99.90
6375;DHT22;35400;45.472;-122.822;2022-12-29T06:45:55;6.20;99.90
6375;DHT22;35400;45.472;-122.822;2022-12-29T06:48:22;6.10;99.90
6375;DHT22;35400;45.472;-122.822;2022-12-29T06:50:48;6.10;99.90
6375;DHT22;35400;45.472;-122.822;2022-12-29T06:53:15;6.10;99.90
6375;DHT22;35400;45.472;-122.822;2022-12-29T06:55:42;6.00;99.90
6375;DHT22;35400;45.472;-122.822;2022-12-29T06:58:08;6.00;99.90
6375;DHT22;35400;45.472;-122.822;2022-12-29T07:00:35;6.00;99.90
6375;DHT22;35400;45.472;-122.822;2022-12-29T07:03:02;6.00;99.90
6375;DHT22;35400;45.472;-122.822;2022-12-29T07:05:28;6.00;99.90
6375;DHT22;35400;45.472;-122.822;2022-12-29T07:07:57;6.00;99.90
6375;DHT22;35400;45.472;-122.822;2022-12-29T07:10:23;5.90;99.90
6375;DHT22;35400;45.472;-122.822;2022-12-29T07:12:50;5.90;99.90
6375;DHT22;35400;45.472;-122.822;2022-12-29T07:15:17;5.90;99.90
6375;DHT22;35400;45.472;-122.822;2022-12-29T07:17:43;5.90;99.90
6375;DHT22;35400;45.472;-122.822;2022-12-29T07:20:10;5.80;99.90
6375;DHT22;35400;45.472;-122.822;2022-12-29T07:22:36;5.80;99.90
6375;DHT22;35400;45.472;-122.822;2022-12-29T07:25:03;5.80;99.90
6375;DHT22;35400;45.472;-122.822;2022-12-29T07:27:29;5.80;99.90
6375;DHT22;35400;45.472;-122.822;2022-12-29T07:29:56;5.80;99.90
6375;DHT22;35400;45.472;-122.822;2022-12-29T07:32:22;5.80;99.90
6375;DHT22;35400;45.472;-122.822;2022-12-29T07:34:49;5.80;99.90
6375;DHT22;35400;45.472;-122.822;2022-12-29T07:37:15;5.80;99.90
6375;DHT22;35400;45.472;-122.822;2022-12-29T07:39:42;5.80;99.90
6375;DHT22;35400;45.472;-122.822;2022-12-29T07:42:09;5.80;99.90
6375;DHT22;35400;45.472;-122.822;2022-12-29T07:44:42;5.80;99.90
6375;DHT22;35400;45.472;-122.822;2022-12-29T07:47:34;5.70;99.90
6375;DHT22;35400;45.472;-122.822;2022-12-29T07:50:01;5.70;99.90
6375;DHT22;35400;45.472;-122.822;2022-12-29T07:52:27;5.70;99.90
6375;DHT22;35400;45.472;-122.822;2022-12-29T07:54:53;5.70;99.90
6375;DHT22;35400;45.472;-122.822;2022-12-29T07:57:20;5.70;99.90
6375;DHT22;35400;45.472;-122.822;2022-12-29T07:59:47;5.70;99.90
6375;DHT22;35400;45.472;-122.822;2022-12-29T08:02:13;5.70;99.90
6375;DHT22;35400;45.472;-122.822;2022-12-29T08:04:40;5.70;99.90
6375;DHT22;35400;45.472;-122.822;2022-12-29T08:07:07;5.60;99.90
6375;DHT22;35400;45.472;-122.822;2022-12-29T08:09:34;5.60;99.90
6375;DHT22;35400;45.472;-122.822;2022-12-29T08:12:01;5.60;99.90
6375;DHT22;35400;45.472;-122.822;2022-12-29T08:14:28;5.60;99.90
6375;DHT22;35400;45.472;-122.822;2022-12-29T08:16:55;5.60;99.90
6375;DHT22;35400;45.472;-122.822;2022-12-29T08:19:21;5.60;99.90
6375;DHT22;35400;45.472;-122.822;2022-12-29T08:21:48;5.60;99.90
6375;DHT22;35400;45.472;-122.822;2022-12-29T08:24:14;5.60;99.90
6375;DHT22;35400;45.472;-122.822;2022-12-29T08:26:41;5.50;99.90
6375;DHT22;35400;45.472;-122.822;2022-12-29T08:29:07;5.50;99.90
6375;DHT22;35400;45.472;-122.822;2022-12-29T08:31:34;5.50;99.90
6375;DHT22;35400;45.472;-122.822;2022-12-29T08:34:00;5.50;99.90
6375;DHT22;35400;45.472;-122.822;2022-12-29T08:36:29;5.50;99.90
6375;DHT22;35400;45.472;-122.822;2022-12-29T08:38:56;5.50;99.90
6375;DHT22;35400;45.472;-122.822;2022-12-29T08:41:23;5.50;99.90
6375;DHT22;35400;45.472;-122.822;2022-12-29T08:43:49;5.50;99.90
6375;DHT22;35400;45.472;-122.822;2022-12-29T08:46:16;5.50;99.90
6375;DHT22;35400;45.472;-122.822;2022-12-29T08:48:43;5.50;99.90
6375;DHT22;35400;45.472;-122.822;2022-12-29T08:51:09;5.50;99.90
6375;DHT22;35400;45.472;-122.822;2022-12-29T08:53:35;5.50;99.90
6375;DHT22;35400;45.472;-122.822;2022-12-29T08:56:02;5.50;99.90
6375;DHT22;35400;45.472;-122.822;2022-12-29T08:58:30;5.40;99.90
6375;DHT22;35400;45.472;-122.822;2022-12-29T09:00:57;5.40;99.90
6375;DHT22;35400;45.472;-122.822;2022-12-29T09:03:24;5.40;99.90
6375;DHT22;35400;45.472;-122.822;2022-12-29T09:05:52;5.40;99.90
6375;DHT22;35400;45.472;-122.822;2022-12-29T09:08:19;5.40;99.90
6375;DHT22;35400;45.472;-122.822;2022-12-29T09:10:45;5.40;99.90
6375;DHT22;35400;45.472;-122.822;2022-12-29T09:13:12;5.40;99.90
6375;DHT22;35400;45.472;-122.822;2022-12-29T09:15:39;5.40;99.90
6375;DHT22;35400;45.472;-122.822;2022-12-29T09:18:06;5.40;99.90
6375;DHT22;35400;45.472;-122.822;2022-12-29T09:20:33;5.40;99.90
6375;DHT22;35400;45.472;-122.822;2022-12-29T09:23:00;5.40;99.90
6375;DHT22;35400;45.472;-122.822;2022-12-29T09:25:26;5.40;99.90
6375;DHT22;35400;45.472;-122.822;2022-12-29T09:27:53;5.40;99.90
6375;DHT22;35400;45.472;-122.822;2022-12-29T09:30:21;5.40;99.90
6375;DHT22;35400;45.472;-122.822;2022-12-29T09:32:48;5.40;99.90
6375;DHT22;35400;45.472;-122.822;2022-12-29T09:35:15;5.40;99.90
6375;DHT22;35400;45.472;-122.822;2022-12-29T09:37:43;5.40;99.90
6375;DHT22;35400;45.472;-122.822;2022-12-29T09:40:41;5.40;99.90
6375;DHT22;35400;45.472;-122.822;2022-12-29T09:46:28;5.40;99.90
6375;DHT22;35400;45.472;-122.822;2022-12-29T09:49:00;5.40;99.90
6375;DHT22;35400;45.472;-122.822;2022-12-29T09:51:29;5.40;99.90
6375;DHT22;35400;45.472;-122.822;2022-12-29T09:53:58;5.40;99.90
6375;DHT22;35400;45.472;-122.822;2022-12-29T09:56:26;5.40;99.90
6375;DHT22;35400;45.472;-122.822;2022-12-29T09:58:58;5.40;99.90
6375;DHT22;35400;45.472;-122.822;2022-12-29T10:01:30;5.40;99.90
6375;DHT22;35400;45.472;-122.822;2022-12-29T10:03:59;5.40;99.90
6375;DHT22;35400;45.472;-122.822;2022-12-29T10:06:40;5.40;99.90
6375;DHT22;35400;45.472;-122.822;2022-12-29T10:09:31;5.40;99.90
6375;DHT22;35400;45.472;-122.822;2022-12-29T10:24:59;5.40;99.90
6375;DHT22;35400;45.472;-122.822;2022-12-29T10:27:30;5.40;99.90
6375;DHT22;35400;45.472;-122.822;2022-12-29T10:29:57;5.40;99.90
6375;DHT22;35400;45.472;-122.822;2022-12-29T10:34:53;5.50;99.90
6375;DHT22;35400;45.472;-122.822;2022-12-29T10:39:49;5.50;99.90
6375;DHT22;35400;45.472;-122.822;2022-12-29T10:44:56;5.50;99.90
6375;DHT22;35400;45.472;-122.822;2022-12-29T10:47:24;5.50;99.90
6375;DHT22;35400;45.472;-122.822;2022-12-29T10:49:51;5.50;99.90
6375;DHT22;35400;45.472;-122.822;2022-12-29T10:52:18;5.50;99.90
6375;DHT22;35400;45.472;-122.822;2022-12-29T10:54:48;5.50;99.90
6375;DHT22;35400;45.472;-122.822;2022-12-29T10:57:36;5.50;99.90
6375;DHT22;35400;45.472;-122.822;2022-12-29T11:00:13;5.50;99.90
6375;DHT22;35400;45.472;-122.822;2022-12-29T11:07:59;5.60;99.90
6375;DHT22;35400;45.472;-122.822;2022-12-29T11:10:34;5.60;99.90
6375;DHT22;35400;45.472;-122.822;2022-12-29T11:13:03;5.60;99.90
6375;DHT22;35400;45.472;-122.822;2022-12-29T11:15:49;5.60;99.90
6375;DHT22;35400;45.472;-122.822;2022-12-29T11:18:23;5.60;99.90
6375;DHT22;35400;45.472;-122.822;2022-12-29T11:20:51;5.60;99.90
6375;DHT22;35400;45.472;-122.822;2022-12-29T11:23:54;5.60;99.90
6375;DHT22;35400;45.472;-122.822;2022-12-29T11:26:15;5.70;99.90
6375;DHT22;35400;45.472;-122.822;2022-12-29T11:28:46;5.70;99.90
6375;DHT22;35400;45.472;-122.822;2022-12-29T11:31:17;5.70;99.90
6375;DHT22;35400;45.472;-122.822;2022-12-29T11:33:44;5.70;99.90
6375;DHT22;35400;45.472;-122.822;2022-12-29T11:36:14;5.80;99.90
6375;DHT22;35400;45.472;-122.822;2022-12-29T11:38:45;5.80;99.90
6375;DHT22;35400;45.472;-122.822;2022-12-29T11:41:13;5.80;99.90
6375;DHT22;35400;45.472;-122.822;2022-12-29T11:43:45;5.80;99.90
6375;DHT22;35400;45.472;-122.822;2022-12-29T11:46:20;5.80;99.90
6375;DHT22;35400;45.472;-122.822;2022-12-29T11:48:49;5.80;99.90
6375;DHT22;35400;45.472;-122.822;2022-12-29T11:51:39;5.80;99.90
6375;DHT22;35400;45.472;-122.822;2022-12-29T11:54:09;5.80;99.90
6375;DHT22;35400;45.472;-122.822;2022-12-29T11:56:39;5.80;99.90
6375;DHT22;35400;45.472;-122.822;2022-12-29T12:01:53;5.80;99.90
6375;DHT22;35400;45.472;-122.822;2022-12-29T12:04:23;5.80;99.90
6375;DHT22;35400;45.472;-122.822;2022-12-29T12:07:13;5.80;99.90
6375;DHT22;35400;45.472;-122.822;2022-12-29T12:10:01;5.80;99.90
6375;DHT22;35400;45.472;-122.822;2022-12-29T12:12:36;5.80;99.90
6375;DHT22;35400;45.472;-122.822;2022-12-29T12:15:04;5.80;99.90
6375;DHT22;35400;45.472;-122.822;2022-12-29T12:17:54;5.70;99.90
6375;DHT22;35400;45.472;-122.822;2022-12-29T12:28:20;5.70;99.90
6375;DHT22;35400;45.472;-122.822;2022-12-29T12:30:48;5.70;99.90
6375;DHT22;35400;45.472;-122.822;2022-12-29T12:38:18;5.70;99.90
6375;DHT22;35400;45.472;-122.822;2022-12-29T12:40:57;5.70;99.90
6375;DHT22;35400;45.472;-122.822;2022-12-29T12:43:38;5.70;99.90
6375;DHT22;35400;45.472;-122.822;2022-12-29T13:00:10;5.70;99.90
6375;DHT22;35400;45.472;-122.822;2022-12-29T13:05:08;5.70;99.90
6375;DHT22;35400;45.472;-122.822;2022-12-29T13:21:12;5.70;99.90
6375;DHT22;35400;45.472;-122.822;2022-12-29T13:23:44;5.70;99.90
6375;DHT22;35400;45.472;-122.822;2022-12-29T13:33:52;5.70;99.90
6375;DHT22;35400;45.472;-122.822;2022-12-29T13:38:46;5.70;99.90
6375;DHT22;35400;45.472;-122.822;2022-12-29T13:41:25;5.70;99.90
6375;DHT22;35400;45.472;-122.822;2022-12-29T13:43:52;5.70;99.90
6375;DHT22;35400;45.472;-122.822;2022-12-29T13:46:21;5.70;99.90
6375;DHT22;35400;45.472;-122.822;2022-12-29T13:49:10;5.70;99.90
6375;DHT22;35400;45.472;-122.822;2022-12-29T13:51:41;5.70;99.90
6375;DHT22;35400;45.472;-122.822;2022-12-29T13:54:22;5.70;99.90
6375;DHT22;35400;45.472;-122.822;2022-12-29T13:57:02;5.70;99.90
6375;DHT22;35400;45.472;-122.822;2022-12-29T13:59:44;5.70;99.90
6375;DHT22;35400;45.472;-122.822;2022-12-29T14:02:26;5.70;99.90
6375;DHT22;35400;45.472;-122.822;2022-12-29T14:04:59;5.70;99.90
6375;DHT22;35400;45.472;-122.822;2022-12-29T14:07:26;5.70;99.90
6375;DHT22;35400;45.472;-122.822;2022-12-29T14:09:54;5.70;99.90
6375;DHT22;35400;45.472;-122.822;2022-12-29T14:15:04;5.70;99.90
6375;DHT22;35400;45.472;-122.822;2022-12-29T14:17:42;5.70;99.90
6375;DHT22;35400;45.472;-122.822;2022-12-29T14:20:17;5.70;99.90
6375;DHT22;35400;45.472;-122.822;2022-12-29T14:23:34;5.70;99.90
6375;DHT22;35400;45.472;-122.822;2022-12-29T14:28:16;5.70;99.90
6375;DHT22;35400;45.472;-122.822;2022-12-29T14:30:53;5.70;99.90
6375;DHT22;35400;45.472;-122.822;2022-12-29T14:33:19;5.70;99.90
6375;DHT22;35400;45.472;-122.822;2022-12-29T14:35:46;5.70;99.90
6375;DHT22;35400;45.472;-122.822;2022-12-29T14:38:16;5.70;99.90
6375;DHT22;35400;45.472;-122.822;2022-12-29T14:40:43;5.70;99.90
6375;DHT22;35400;45.472;-122.822;2022-12-29T14:43:23;5.70;99.90
6375;DHT22;35400;45.472;-122.822;2022-12-29T14:46:00;5.70;99.90
6375;DHT22;35400;45.472;-122.822;2022-12-29T14:48:32;5.80;99.90
6375;DHT22;35400;45.472;-122.822;2022-12-29T14:50:59;5.70;99.90
6375;DHT22;35400;45.472;-122.822;2022-12-29T14:56:12;5.70;99.90
6375;DHT22;35400;45.472;-122.822;2022-12-29T15:01:12;5.70;99.90
6375;DHT22;35400;45.472;-122.822;2022-12-29T15:03:45;5.70;99.90
6375;DHT22;35400;45.472;-122.822;2022-12-29T15:06:15;5.70;99.90
6375;DHT22;35400;45.472;-122.822;2022-12-29T15:08:50;5.70;99.90
6375;DHT22;35400;45.472;-122.822;2022-12-29T15:11:18;5.70;99.90
6375;DHT22;35400;45.472;-122.822;2022-12-29T15:13:46;5.70;99.90
6375;DHT22;35400;45.472;-122.822;2022-12-29T15:18:53;5.70;99.90
6375;DHT22;35400;45.472;-122.822;2022-12-29T15:21:22;5.70;99.90
6375;DHT22;35400;45.472;-122.822;2022-12-29T15:23:49;5.70;99.90
6375;DHT22;35400;45.472;-122.822;2022-12-29T15:26:16;5.70;99.90
6375;DHT22;35400;45.472;-122.822;2022-12-29T15:28:51;5.70;99.90
6375;DHT22;35400;45.472;-122.822;2022-12-29T15:31:19;5.70;99.90
6375;DHT22;35400;45.472;-122.822;2022-12-29T15:33:49;5.70;99.90
6375;DHT22;35400;45.472;-122.822;2022-12-29T15:36:23;5.70;99.90
6375;DHT22;35400;45.472;-122.822;2022-12-29T15:38:50;5.70;99.90
6375;DHT22;35400;45.472;-122.822;2022-12-29T15:46:22;5.70;99.90
6375;DHT22;35400;45.472;-122.822;2022-12-29T15:48:48;5.70;99.90
6375;DHT22;35400;45.472;-122.822;2022-12-29T15:53:54;5.70;99.90
6375;DHT22;35400;45.472;-122.822;2022-12-29T15:56:21;5.70;99.90
6375;DHT22;35400;45.472;-122.822;2022-12-29T15:58:48;5.60;99.90
6375;DHT22;35400;45.472;-122.822;2022-12-29T16:03:45;5.60;99.90
6375;DHT22;35400;45.472;-122.822;2022-12-29T16:08:54;5.60;99.90
6375;DHT22;35400;45.472;-122.822;2022-12-29T16:11:23;5.60;99.90
6375;DHT22;35400;45.472;-122.822;2022-12-29T16:13:51;5.60;99.90
6375;DHT22;35400;45.472;-122.822;2022-12-29T16:16:29;5.60;99.90
6375;DHT22;35400;45.472;-122.822;2022-12-29T16:18:57;5.70;99.90
6375;DHT22;35400;45.472;-122.822;2022-12-29T16:21:25;5.70;99.90
6375;DHT22;35400;45.472;-122.822;2022-12-29T16:23:53;5.70;99.90
6375;DHT22;35400;45.472;-122.822;2022-12-29T16:26:21;5.70;99.90
6375;DHT22;35400;45.472;-122.822;2022-12-29T16:28:49;5.70;99.90
6375;DHT22;35400;45.472;-122.822;2022-12-29T16:33:49;5.70;99.90
6375;DHT22;35400;45.472;-122.822;2022-12-29T16:36:33;5.70;99.90
6375;DHT22;35400;45.472;-122.822;2022-12-29T16:39:42;5.70;99.90
6375;DHT22;35400;45.472;-122.822;2022-12-29T16:41:49;5.80;99.90
6375;DHT22;35400;45.472;-122.822;2022-12-29T16:44:23;5.80;99.90
6375;DHT22;35400;45.472;-122.822;2022-12-29T16:49:35;5.80;99.90
6375;DHT22;35400;45.472;-122.822;2022-12-29T16:52:10;5.80;99.90
6375;DHT22;35400;45.472;-122.822;2022-12-29T16:54:37;5.80;99.90
6375;DHT22;35400;45.472;-122.822;2022-12-29T16:57:05;5.80;99.90
6375;DHT22;35400;45.472;-122.822;2022-12-29T16:59:39;5.80;99.90
6375;DHT22;35400;45.472;-122.822;2022-12-29T17:02:15;5.80;99.90
6375;DHT22;35400;45.472;-122.822;2022-12-29T17:04:42;5.80;99.90
6375;DHT22;35400;45.472;-122.822;2022-12-29T17:07:17;5.80;99.90
6375;DHT22;35400;45.472;-122.822;2022-12-29T17:09:44;5.90;99.90
6375;DHT22;35400;45.472;-122.822;2022-12-29T17:12:15;5.90;99.90
6375;DHT22;35400;45.472;-122.822;2022-12-29T17:17:36;5.90;99.90
6375;DHT22;35400;45.472;-122.822;2022-12-29T17:20:06;5.90;99.90
6375;DHT22;35400;45.472;-122.822;2022-12-29T17:22:33;5.90;99.90
6375;DHT22;35400;45.472;-122.822;2022-12-29T17:25:00;6.00;99.90
6375;DHT22;35400;45.472;-122.822;2022-12-29T17:27:35;6.00;99.90
6375;DHT22;35400;45.472;-122.822;2022-12-29T17:30:04;6.00;99.90
6375;DHT22;35400;45.472;-122.822;2022-12-29T17:32:31;6.00;99.90
6375;DHT22;35400;45.472;-122.822;2022-12-29T17:34:58;6.00;99.90
6375;DHT22;35400;45.472;-122.822;2022-12-29T17:39:51;6.10;99.90
6375;DHT22;35400;45.472;-122.822;2022-12-29T17:42:17;6.10;99.90
6375;DHT22;35400;45.472;-122.822;2022-12-29T17:44:45;6.10;99.90
6375;DHT22;35400;45.472;-122.822;2022-12-29T17:47:12;6.10;99.90
6375;DHT22;35400;45.472;-122.822;2022-12-29T17:49:41;6.10;99.90
6375;DHT22;35400;45.472;-122.822;2022-12-29T17:52:15;6.10;99.90
6375;DHT22;35400;45.472;-122.822;2022-12-29T17:54:46;6.10;99.90
6375;DHT22;35400;45.472;-122.822;2022-12-29T17:57:17;6.20;99.90
6375;DHT22;35400;45.472;-122.822;2022-12-29T17:59:44;6.20;99.90
6375;DHT22;35400;45.472;-122.822;2022-12-29T18:02:32;6.20;99.90
6375;DHT22;35400;45.472;-122.822;2022-12-29T18:04:59;6.20;99.90
6375;DHT22;35400;45.472;-122.822;2022-12-29T18:07:28;6.20;99.90
6375;DHT22;35400;45.472;-122.822;2022-12-29T18:09:55;6.30;99.90
6375;DHT22;35400;45.472;-122.822;2022-12-29T18:12:38;6.30;99.90
6375;DHT22;35400;45.472;-122.822;2022-12-29T18:15:06;6.30;99.90
6375;DHT22;35400;45.472;-122.822;2022-12-29T18:17:38;6.40;99.90
6375;DHT22;35400;45.472;-122.822;2022-12-29T18:20:04;6.40;99.90